createdAt,value
2023-02-07T00:02:27.785Z,103699.31
2023-02-07T00:07:33.263Z,103702.95
2023-02-07T00:12:38.823Z,103699.06
2023-02-07T00:17:44.238Z,103701.58
2023-02-07T00:22:49.730Z,103708.75
2023-02-07T00:27:55.310Z,103718.61
2023-02-07T00:33:00.927Z,103718.19
2023-02-07T00:38:06.673Z,103711.75
2023-02-07T00:43:18.871Z,103710.00
2023-02-07T00:48:19.689Z,103714.23
2023-02-07T00:53:25.820Z,103718.19
2023-02-07T00:58:32.780Z,103722.61
2023-02-07T01:03:38.670Z,103713.59
2023-02-07T01:08:44.417Z,103693.33
2023-02-07T01:13:49.807Z,103696.41
2023-02-07T01:18:55.801Z,103692.94
2023-02-07T01:24:01.407Z,103687.08
2023-02-07T01:29:06.959Z,103677.46
2023-02-07T01:34:14.291Z,103683.13
2023-02-07T01:39:19.740Z,103682.11
2023-02-07T01:44:28.249Z,103677.46
2023-02-07T01:49:36.778Z,103680.09
2023-02-07T01:54:42.702Z,103677.82
2023-02-07T01:59:50.275Z,103667.47
2023-02-07T02:04:56.892Z,103649.87
2023-02-07T02:10:02.975Z,103645.20
2023-02-07T02:15:39.424Z,103652.48
2023-02-07T02:21:14.009Z,103642.28
2023-02-07T02:26:42.190Z,103646.17
2023-02-07T02:32:24.882Z,103633.49
2023-02-07T02:37:55.957Z,103634.05
2023-02-07T02:43:04.630Z,103634.10
2023-02-07T02:48:13.144Z,103626.69
2023-02-07T02:53:19.031Z,103628.46
2023-02-07T02:58:48.866Z,103641.02
2023-02-07T03:04:18.211Z,103630.73
2023-02-07T03:09:44.506Z,103637.91
2023-02-07T03:14:59.163Z,103649.80
2023-02-07T03:20:22.913Z,103652.66
2023-02-07T03:25:31.413Z,103661.91
2023-02-07T03:30:40.452Z,103659.76
2023-02-07T03:35:52.107Z,103665.55
2023-02-07T03:41:03.416Z,103669.34
2023-02-07T03:46:10.804Z,103669.61
2023-02-07T03:51:16.216Z,103677.27
2023-02-07T03:56:21.763Z,103680.87
2023-02-07T04:01:27.302Z,103684.41
2023-02-07T04:06:32.688Z,103694.28
2023-02-07T04:11:38.080Z,103695.39
2023-02-07T04:16:43.610Z,103690.80
2023-02-07T04:21:49.442Z,103684.67
2023-02-07T04:26:55.050Z,103686.16
2023-02-07T04:32:00.657Z,103694.14
2023-02-07T04:37:06.480Z,103690.41
2023-02-07T04:42:12.231Z,103693.91
2023-02-07T04:47:17.698Z,103696.30
2023-02-07T04:52:23.203Z,103687.66
2023-02-07T04:57:28.818Z,103676.16
2023-02-07T05:02:35.433Z,103664.50
2023-02-07T05:07:41.058Z,103660.58
2023-02-07T05:12:46.517Z,103659.91
2023-02-07T05:17:52.597Z,103647.25
2023-02-07T05:22:58.266Z,103638.97
2023-02-07T05:28:03.756Z,103639.91
2023-02-07T05:33:09.376Z,103633.63
2023-02-07T05:38:17.595Z,103638.44
2023-02-07T05:43:23.160Z,103639.98
2023-02-07T05:48:28.579Z,103636.91
2023-02-07T05:53:34.167Z,103636.67
2023-02-07T05:58:39.610Z,103636.61
2023-02-07T06:03:45.224Z,103643.58
2023-02-07T06:08:50.861Z,103633.92
2023-02-07T06:13:56.398Z,103625.57
2023-02-07T06:19:02.490Z,103625.81
2023-02-07T06:24:08.390Z,103631.34
2023-02-07T06:29:14.330Z,103627.47
2023-02-07T06:34:19.856Z,103620.19
2023-02-07T06:39:25.493Z,103623.59
2023-02-07T06:44:30.933Z,103621.20
2023-02-07T06:49:36.325Z,103624.09
2023-02-07T06:54:42.039Z,103628.23
2023-02-07T06:59:47.524Z,103625.55
2023-02-07T07:04:52.986Z,103629.92
2023-02-07T07:09:58.433Z,103643.80
2023-02-07T07:15:04.304Z,103640.54
2023-02-07T07:20:11.209Z,103646.09
2023-02-07T07:25:16.817Z,103653.73
2023-02-07T07:30:22.523Z,103653.33
2023-02-07T07:35:29.040Z,103655.12
2023-02-07T07:40:34.588Z,103656.19
2023-02-07T07:45:39.989Z,103657.28
2023-02-07T07:50:45.596Z,103662.65
2023-02-07T07:55:56.255Z,103661.73
2023-02-07T08:01:01.910Z,103676.97
2023-02-07T08:06:08.222Z,103684.02
2023-02-07T08:11:13.962Z,103695.06
2023-02-07T08:16:19.578Z,103695.29
2023-02-07T08:21:26.850Z,103692.34
2023-02-07T08:26:32.401Z,103693.42
2023-02-07T08:31:38.082Z,103693.13
2023-02-07T08:36:43.602Z,103691.55
2023-02-07T08:41:49.142Z,103685.53
2023-02-07T08:46:54.892Z,103683.41
2023-02-07T08:52:00.407Z,103682.27
2023-02-07T08:57:06.111Z,103693.72
2023-02-07T09:02:13.277Z,103693.81
2023-02-07T09:07:20.376Z,103689.85
2023-02-07T09:12:25.992Z,103704.78
2023-02-07T09:17:31.519Z,103703.47
2023-02-07T09:22:38.745Z,103716.70
2023-02-07T09:27:44.494Z,103721.59
2023-02-07T09:32:49.954Z,103737.01
2023-02-07T09:37:56.362Z,103732.38
2023-02-07T09:43:13.863Z,103731.44
2023-02-07T09:48:22.737Z,103727.39
2023-02-07T09:53:31.562Z,103734.28
2023-02-07T09:58:43.080Z,103726.02
2023-02-07T10:04:03.499Z,103739.91
2023-02-07T10:09:11.938Z,103740.97
2023-02-07T10:14:32.639Z,103740.72
2023-02-07T10:20:10.021Z,103751.52
2023-02-07T10:25:39.887Z,103735.49
2023-02-07T10:30:54.450Z,103741.44
2023-02-07T10:36:05.742Z,103741.87
2023-02-07T10:41:14.190Z,103724.86
2023-02-07T10:46:22.465Z,103714.79
2023-02-07T10:51:36.729Z,103704.37
2023-02-07T10:56:51.103Z,103708.52
2023-02-07T11:01:57.001Z,103713.56
2023-02-07T11:07:05.415Z,103694.09
2023-02-07T11:12:23.081Z,103682.47
2023-02-07T11:17:29.570Z,103691.39
2023-02-07T11:22:36.128Z,103675.77
2023-02-07T11:27:43.278Z,103655.14
2023-02-07T11:33:00.758Z,103653.50
2023-02-07T11:38:09.248Z,103651.98
2023-02-07T11:43:20.078Z,103646.38
2023-02-07T11:48:34.581Z,103645.67
2023-02-07T11:53:58.300Z,103636.32
2023-02-07T11:59:06.812Z,103641.11
2023-02-07T12:04:15.746Z,103633.80
2023-02-07T12:09:32.976Z,103633.80
2023-02-07T12:14:57.902Z,103616.65
2023-02-07T12:20:10.435Z,103616.97
2023-02-07T12:25:24.783Z,103610.11
2023-02-07T12:30:36.278Z,103610.11
2023-02-07T12:36:13.679Z,103607.82
2023-02-07T12:41:22.093Z,103611.09
2023-02-07T12:46:30.602Z,103610.30
2023-02-07T12:51:56.073Z,103615.55
2023-02-07T12:57:10.693Z,103615.55
2023-02-07T13:02:37.301Z,103608.06
2023-02-07T13:08:02.215Z,103607.84
2023-02-07T13:13:30.172Z,103607.52
2023-02-07T13:18:47.266Z,103593.26
2023-02-07T13:23:54.204Z,103584.83
2023-02-07T13:29:02.703Z,103579.16
2023-02-07T13:34:14.034Z,103573.22
2023-02-07T13:39:39.455Z,103579.48
2023-02-07T13:45:18.278Z,103570.80
2023-02-07T13:50:37.689Z,103564.86
2023-02-07T13:55:45.248Z,103569.88
2023-02-07T14:00:53.772Z,103567.19
2023-02-07T14:06:23.743Z,103571.33
2023-02-07T14:11:41.263Z,103573.55
2023-02-07T14:16:55.413Z,103575.11
2023-02-07T14:22:22.236Z,103580.52
2023-02-07T14:27:42.741Z,103555.31
2023-02-07T14:33:24.917Z,103555.31
2023-02-07T14:38:42.199Z,103558.62
2023-02-07T14:44:08.574Z,103548.19
2023-02-07T14:49:23.680Z,103555.45
2023-02-07T14:54:50.380Z,103559.23
2023-02-07T15:00:15.624Z,103564.39
2023-02-07T15:05:33.671Z,103575.41
2023-02-07T15:10:47.446Z,103576.94
2023-02-07T15:16:01.878Z,103572.45
2023-02-07T15:21:09.709Z,103573.97
2023-02-07T15:26:18.146Z,103564.75
2023-02-07T15:31:23.988Z,103562.00
2023-02-07T15:36:38.280Z,103559.97
2023-02-07T15:41:46.157Z,103564.20
2023-02-07T15:46:58.707Z,103562.84
2023-02-07T15:52:16.515Z,103566.30
2023-02-07T15:57:33.826Z,103564.66
2023-02-07T16:02:45.587Z,103564.84
2023-02-07T16:07:54.244Z,103564.69
2023-02-07T16:13:14.634Z,103570.19
2023-02-07T16:18:47.063Z,103573.00
2023-02-07T16:23:55.412Z,103575.15
2023-02-07T16:29:01.006Z,103571.02
2023-02-07T16:34:07.611Z,103574.68
2023-02-07T16:39:13.474Z,103577.75
2023-02-07T16:44:28.445Z,103584.22
2023-02-07T16:49:34.872Z,103587.67
2023-02-07T16:54:40.316Z,103583.88
2023-02-07T16:59:45.776Z,103594.19
2023-02-07T17:04:51.307Z,103592.66
2023-02-07T17:09:57.404Z,103603.00
2023-02-07T17:15:03.614Z,103607.64
2023-02-07T17:20:30.441Z,103610.73
2023-02-07T17:25:36.111Z,103612.81
2023-02-07T17:30:43.116Z,103624.04
2023-02-07T17:35:48.645Z,103633.44
2023-02-07T17:40:54.638Z,103633.58
2023-02-07T17:46:00.219Z,103637.48
2023-02-07T17:51:06.617Z,103645.10
2023-02-07T17:56:17.632Z,103646.23
2023-02-07T18:01:24.244Z,103648.54
2023-02-07T18:06:31.506Z,103647.13
2023-02-07T18:11:36.988Z,103642.75
2023-02-07T18:16:42.507Z,103647.30
2023-02-07T18:21:48.290Z,103637.98
2023-02-07T18:26:53.792Z,103646.42
2023-02-07T18:31:59.646Z,103636.48
2023-02-07T18:37:05.117Z,103645.04
2023-02-07T18:42:11.589Z,103637.28
2023-02-07T18:47:18.865Z,103642.67
2023-02-07T18:52:24.627Z,103642.44
2023-02-07T18:57:30.202Z,103649.57
2023-02-07T19:02:35.733Z,103653.19
2023-02-07T19:07:41.333Z,103647.08
2023-02-07T19:12:47.063Z,103652.19
2023-02-07T19:17:52.612Z,103648.39
2023-02-07T19:22:58.072Z,103646.50
2023-02-07T19:28:03.855Z,103637.80
2023-02-07T19:33:09.636Z,103642.38
2023-02-07T19:38:16.688Z,103641.98
2023-02-07T19:43:22.306Z,103648.12
2023-02-07T19:48:28.327Z,103650.88
2023-02-07T19:53:34.296Z,103652.45
2023-02-07T19:58:42.598Z,103667.39
2023-02-07T20:03:52.729Z,103664.28
2023-02-07T20:08:59.971Z,103661.70
2023-02-07T20:14:07.053Z,103654.54
2023-02-07T20:19:13.039Z,103663.06
2023-02-07T20:24:19.597Z,103655.48
2023-02-07T20:29:25.171Z,103663.44
2023-02-07T20:34:31.885Z,103662.75
2023-02-07T20:39:38.597Z,103663.67
2023-02-07T20:44:44.132Z,103664.22
2023-02-07T20:49:49.680Z,103665.03
2023-02-07T20:54:55.111Z,103655.04
2023-02-07T21:00:00.592Z,103662.52
2023-02-07T21:05:06.542Z,103666.73
2023-02-07T21:10:12.021Z,103664.52
2023-02-07T21:15:17.543Z,103669.64
2023-02-07T21:20:23.146Z,103666.20
2023-02-07T21:25:28.785Z,103671.69
2023-02-07T21:30:36.887Z,103675.38
2023-02-07T21:35:42.413Z,103673.48
2023-02-07T21:40:48.974Z,103669.12
2023-02-07T21:45:54.528Z,103665.38
2023-02-07T21:51:15.192Z,103658.95
2023-02-07T21:56:24.955Z,103650.33
2023-02-07T22:01:32.834Z,103653.44
2023-02-07T22:06:41.720Z,103666.12
2023-02-07T22:11:47.198Z,103679.43
2023-02-07T22:16:54.583Z,103662.48
2023-02-07T22:22:00.117Z,103667.75
2023-02-07T22:27:05.618Z,103671.64
2023-02-07T22:32:11.132Z,103668.80
2023-02-07T22:37:16.987Z,103674.12
2023-02-07T22:42:22.636Z,103675.95
2023-02-07T22:47:30.163Z,103675.13
2023-02-07T22:52:35.686Z,103659.14
2023-02-07T22:57:42.426Z,103671.64
2023-02-07T23:02:48.299Z,103673.43
2023-02-07T23:07:54.180Z,103676.48
2023-02-07T23:12:59.598Z,103679.06
2023-02-07T23:18:07.914Z,103679.95
2023-02-07T23:23:14.496Z,103682.11
2023-02-07T23:28:20.021Z,103677.69
2023-02-07T23:33:25.482Z,103674.06
2023-02-07T23:38:31.037Z,103683.06
2023-02-07T23:43:37.788Z,103689.13
2023-02-07T23:48:43.200Z,103688.13
2023-02-07T23:53:49.109Z,103694.59
2023-02-07T23:58:56.900Z,103687.11
